createdAt,value
2017-12-04T00:01:59.412Z,20.45
2017-12-04T00:04:27.361Z,19.40
2017-12-04T00:06:55.301Z,16.65
2017-12-04T00:09:24.050Z,20.65
2017-12-04T00:11:52.015Z,18.52
2017-12-04T00:14:19.969Z,15.70
2017-12-04T00:16:48.480Z,20.12
2017-12-04T00:19:16.398Z,18.17
2017-12-04T00:21:45.296Z,24.42
2017-12-04T00:24:13.217Z,22.27
2017-12-04T00:26:42.506Z,22.45
2017-12-04T00:29:10.402Z,18.17
2017-12-04T00:31:38.337Z,16.35
2017-12-04T00:34:08.407Z,17.77
2017-12-04T00:36:36.345Z,18.48
2017-12-04T00:39:05.089Z,22.23
2017-12-04T00:41:33.045Z,19.00
2017-12-04T00:44:00.918Z,21.23
2017-12-04T00:46:28.901Z,19.25
2017-12-04T00:48:56.863Z,18.75
2017-12-04T00:51:24.843Z,16.17
2017-12-04T00:53:52.842Z,16.45
2017-12-04T00:56:20.741Z,19.73
2017-12-04T00:58:51.580Z,20.08
2017-12-04T01:01:22.497Z,20.98
2017-12-04T01:03:51.189Z,19.20
2017-12-04T01:06:21.307Z,20.40
2017-12-04T01:08:50.023Z,20.83
2017-12-04T01:11:17.982Z,18.58
2017-12-04T01:13:45.943Z,16.55
2017-12-04T01:16:14.626Z,20.73
2017-12-04T01:18:42.816Z,19.40
2017-12-04T01:21:10.806Z,25.23
2017-12-04T01:23:38.888Z,16.92
2017-12-04T01:26:06.858Z,17.92
2017-12-04T01:28:34.793Z,16.50
2017-12-04T01:31:03.415Z,21.30
2017-12-04T01:33:31.421Z,19.87
2017-12-04T01:36:04.126Z,15.95
2017-12-04T01:38:32.086Z,17.70
2017-12-04T01:41:00.777Z,16.45
2017-12-04T01:43:28.749Z,22.23
2017-12-04T01:45:56.687Z,19.52
2017-12-04T01:48:24.657Z,19.20
2017-12-04T01:50:52.634Z,19.08
2017-12-04T01:53:20.637Z,17.05
2017-12-04T01:55:48.581Z,19.67
2017-12-04T01:58:16.592Z,18.37
2017-12-04T02:00:44.593Z,18.55
2017-12-04T02:03:13.419Z,17.35
2017-12-04T02:05:41.586Z,17.73
2017-12-04T02:08:09.509Z,18.17
2017-12-04T02:10:37.682Z,15.90
2017-12-04T02:13:05.817Z,14.38
2017-12-04T02:15:34.024Z,17.50
2017-12-04T02:18:02.113Z,23.67
2017-12-04T02:20:30.220Z,17.48
2017-12-04T02:22:58.234Z,19.45
2017-12-04T02:25:26.331Z,16.40
2017-12-04T02:27:54.341Z,18.42
2017-12-04T02:30:25.443Z,20.40
2017-12-04T02:32:53.501Z,27.40
2017-12-04T02:35:21.648Z,22.92
2017-12-04T02:37:49.802Z,19.75
2017-12-04T02:40:17.984Z,20.62
2017-12-04T02:42:46.072Z,18.08
2017-12-04T02:45:14.253Z,21.15
2017-12-04T02:47:42.426Z,20.15
2017-12-04T02:50:10.704Z,19.30
2017-12-04T02:52:38.895Z,16.23
2017-12-04T02:55:07.131Z,21.60
2017-12-04T02:57:35.330Z,21.33
2017-12-04T03:00:03.513Z,22.00
2017-12-04T03:02:31.659Z,17.42
2017-12-04T03:04:59.839Z,20.40
2017-12-04T03:07:27.958Z,18.17
2017-12-04T03:09:56.156Z,15.45
2017-12-04T03:12:25.076Z,19.30
2017-12-04T03:14:53.202Z,16.50
2017-12-04T03:17:21.503Z,17.87
2017-12-04T03:19:50.424Z,20.95
2017-12-04T03:22:18.565Z,18.30
2017-12-04T03:24:47.414Z,16.15
2017-12-04T03:27:19.574Z,16.35
2017-12-04T03:29:47.672Z,15.95
2017-12-04T03:32:15.715Z,17.55
2017-12-04T03:34:43.767Z,14.82
2017-12-04T03:37:11.833Z,18.27
2017-12-04T03:39:39.889Z,18.17
2017-12-04T03:42:08.027Z,19.27
2017-12-04T03:44:36.114Z,16.95
2017-12-04T03:47:08.153Z,15.85
2017-12-04T03:49:36.994Z,16.60
2017-12-04T03:52:05.095Z,16.15
2017-12-04T03:54:33.167Z,12.88
2017-12-04T03:57:01.322Z,17.95
2017-12-04T03:59:29.401Z,12.27
2017-12-04T04:01:58.273Z,17.33
2017-12-04T04:04:26.294Z,14.18
2017-12-04T04:06:54.335Z,17.17
2017-12-04T04:09:22.293Z,18.15
2017-12-04T04:11:50.331Z,13.88
2017-12-04T04:14:18.748Z,15.57
2017-12-04T04:16:48.095Z,17.15
2017-12-04T04:19:16.218Z,15.07
2017-12-04T04:21:45.173Z,17.87
2017-12-04T04:24:13.426Z,17.48
2017-12-04T04:26:41.369Z,17.90
2017-12-04T04:29:09.449Z,17.37
2017-12-04T04:31:38.271Z,19.30
2017-12-04T04:34:06.428Z,29.70
2017-12-04T04:36:34.537Z,18.52
2017-12-04T04:39:02.764Z,19.25
2017-12-04T04:41:30.896Z,19.52
2017-12-04T04:43:59.071Z,18.00
2017-12-04T04:46:27.331Z,16.00
2017-12-04T04:48:55.467Z,19.37
2017-12-04T04:51:23.626Z,20.17
2017-12-04T04:53:51.830Z,21.73
2017-12-04T04:56:19.852Z,20.80
2017-12-04T04:58:48.042Z,16.62
2017-12-04T05:01:16.174Z,15.15
2017-12-04T05:03:44.232Z,14.05
2017-12-04T05:06:13.017Z,14.43
2017-12-04T05:08:41.894Z,12.02
2017-12-04T05:11:09.852Z,15.40
2017-12-04T05:13:37.897Z,18.25
2017-12-04T05:16:12.957Z,16.12
2017-12-04T05:18:48.507Z,17.33
2017-12-04T05:21:24.245Z,18.17
2017-12-04T05:23:54.820Z,15.65
2017-12-04T05:26:23.042Z,18.42
2017-12-04T05:28:51.922Z,15.70
2017-12-04T05:31:19.917Z,16.00
2017-12-04T05:33:47.913Z,15.85
2017-12-04T05:36:16.677Z,14.87
2017-12-04T05:38:44.707Z,17.45
2017-12-04T05:41:12.718Z,13.15
2017-12-04T05:43:40.681Z,15.15
2017-12-04T05:46:08.711Z,18.95
2017-12-04T05:48:36.687Z,18.12
2017-12-04T05:51:04.734Z,24.98
2017-12-04T05:53:32.670Z,20.02
2017-12-04T05:56:01.948Z,17.33
2017-12-04T05:58:29.919Z,18.90
2017-12-04T06:00:57.947Z,17.02
2017-12-04T06:03:25.912Z,18.10
2017-12-04T06:05:53.889Z,18.48
2017-12-04T06:08:21.807Z,18.95
2017-12-04T06:10:49.799Z,15.90
2017-12-04T06:13:17.740Z,16.35
2017-12-04T06:15:45.698Z,17.35
2017-12-04T06:18:13.638Z,18.12
2017-12-04T06:20:41.607Z,17.00
2017-12-04T06:23:10.344Z,15.50
2017-12-04T06:25:38.341Z,21.55
2017-12-04T06:28:06.281Z,17.95
2017-12-04T06:30:34.288Z,17.42
2017-12-04T06:33:02.325Z,18.92
2017-12-04T06:35:30.298Z,16.98
2017-12-04T06:37:58.228Z,14.82
2017-12-04T06:40:26.306Z,14.60
2017-12-04T06:42:54.994Z,16.98
2017-12-04T06:45:23.007Z,15.93
2017-12-04T06:47:51.080Z,15.15
2017-12-04T06:50:19.004Z,13.68
2017-12-04T06:52:46.973Z,14.87
2017-12-04T06:55:14.953Z,16.75
2017-12-04T06:57:42.941Z,14.45
2017-12-04T07:00:10.871Z,16.58
2017-12-04T07:02:38.896Z,19.80
2017-12-04T07:05:06.822Z,16.95
2017-12-04T07:07:34.776Z,16.17
2017-12-04T07:10:02.706Z,14.07
2017-12-04T07:12:30.735Z,17.52
2017-12-04T07:14:58.661Z,15.13
2017-12-04T07:17:26.732Z,15.75
2017-12-04T07:19:54.629Z,15.98
2017-12-04T07:22:22.580Z,19.12
2017-12-04T07:24:50.490Z,15.25
2017-12-04T07:27:18.438Z,16.17
2017-12-04T07:29:46.344Z,15.32
2017-12-04T07:32:14.293Z,14.30
2017-12-04T07:34:42.187Z,17.08
2017-12-04T07:37:11.285Z,12.65
2017-12-04T07:39:39.213Z,17.45
2017-12-04T07:42:07.190Z,15.50
2017-12-04T07:44:35.867Z,15.45
2017-12-04T07:47:03.905Z,14.82
2017-12-04T07:49:31.818Z,12.75
2017-12-04T07:51:59.789Z,14.77
2017-12-04T07:54:27.696Z,15.90
2017-12-04T07:56:55.600Z,14.80
2017-12-04T07:59:23.552Z,14.38
2017-12-04T08:01:51.438Z,12.63
2017-12-04T08:04:19.461Z,13.43
2017-12-04T08:06:47.401Z,14.13
2017-12-04T08:09:15.397Z,13.13
2017-12-04T08:11:43.298Z,15.60
2017-12-04T08:14:11.236Z,12.43
2017-12-04T08:16:39.194Z,18.65
2017-12-04T08:19:07.920Z,16.40
2017-12-04T08:21:35.885Z,15.38
2017-12-04T08:24:03.898Z,18.20
2017-12-04T08:26:31.856Z,16.33
2017-12-04T08:28:59.815Z,17.00
2017-12-04T08:31:27.737Z,21.08
2017-12-04T08:33:55.697Z,21.17
2017-12-04T08:36:24.389Z,27.65
2017-12-04T08:38:53.132Z,27.08
2017-12-04T08:41:21.013Z,28.23
2017-12-04T08:43:49.033Z,34.72
2017-12-04T08:46:21.637Z,22.40
2017-12-04T08:48:49.609Z,28.08
2017-12-04T08:51:17.610Z,29.73
2017-12-04T08:53:45.576Z,34.35
2017-12-04T08:56:15.872Z,35.08
2017-12-04T08:58:49.645Z,38.00
2017-12-04T09:01:18.674Z,46.35
2017-12-04T09:03:46.705Z,39.70
2017-12-04T09:06:16.644Z,49.35
2017-12-04T09:08:44.635Z,43.15
2017-12-04T09:11:12.752Z,50.38
2017-12-04T09:13:41.431Z,41.03
2017-12-04T09:16:09.658Z,36.72
2017-12-04T09:18:37.620Z,49.10
2017-12-04T09:21:05.669Z,44.67
2017-12-04T09:23:34.369Z,44.78
2017-12-04T09:26:03.202Z,57.35
2017-12-04T09:28:31.142Z,43.38
2017-12-04T09:30:59.153Z,40.90
2017-12-04T09:33:27.128Z,38.70
2017-12-04T09:35:56.325Z,47.15
2017-12-04T09:38:24.675Z,38.33
2017-12-04T09:40:52.722Z,39.58
2017-12-04T09:43:20.764Z,40.95
2017-12-04T09:45:48.790Z,45.20
2017-12-04T09:48:16.743Z,40.42
2017-12-04T09:50:44.732Z,42.47
2017-12-04T09:53:12.645Z,27.55
2017-12-04T09:55:40.640Z,45.38
2017-12-04T09:58:08.583Z,39.42
2017-12-04T10:00:36.602Z,41.78
2017-12-04T10:03:04.587Z,36.08
2017-12-04T10:05:32.632Z,41.08
2017-12-04T10:08:00.548Z,36.95
2017-12-04T10:10:28.517Z,39.55
2017-12-04T10:12:56.527Z,42.45
2017-12-04T10:15:24.675Z,40.70
2017-12-04T10:17:52.632Z,43.15
2017-12-04T10:20:20.636Z,44.92
2017-12-04T10:22:49.349Z,38.78
2017-12-04T10:25:17.426Z,35.85
2017-12-04T10:27:45.610Z,36.92
2017-12-04T10:30:13.643Z,34.38
2017-12-04T10:32:42.457Z,30.50
2017-12-04T10:35:10.404Z,27.85
2017-12-04T10:37:38.407Z,29.65
2017-12-04T10:40:06.730Z,30.20
2017-12-04T10:42:34.759Z,27.98
2017-12-04T10:45:02.728Z,24.75
2017-12-04T10:47:30.964Z,25.02
2017-12-04T10:50:01.266Z,31.35
2017-12-04T10:52:29.387Z,24.98
2017-12-04T10:54:57.349Z,25.58
2017-12-04T10:57:32.867Z,25.52
2017-12-04T11:00:00.878Z,27.77
2017-12-04T11:02:29.009Z,36.90
2017-12-04T11:04:57.019Z,34.35
2017-12-04T11:07:24.995Z,35.78
2017-12-04T11:09:52.973Z,36.35
2017-12-04T11:12:20.984Z,28.33
2017-12-04T11:14:48.986Z,37.05
2017-12-04T11:17:21.751Z,33.50
2017-12-04T11:19:49.679Z,30.00
2017-12-04T11:22:17.730Z,28.12
2017-12-04T11:24:45.762Z,32.60
2017-12-04T11:27:13.773Z,25.98
2017-12-04T11:29:41.687Z,44.70
2017-12-04T11:32:09.639Z,46.55
2017-12-04T11:34:37.559Z,36.95
2017-12-04T11:37:05.477Z,35.42
2017-12-04T11:39:33.450Z,37.72
2017-12-04T11:42:01.353Z,38.47
2017-12-04T11:44:29.309Z,46.50
2017-12-04T11:46:57.381Z,44.58
2017-12-04T11:49:25.332Z,45.15
2017-12-04T11:51:53.299Z,41.33
2017-12-04T11:54:21.264Z,44.72
2017-12-04T11:56:56.479Z,48.58
2017-12-04T11:59:24.851Z,48.78
2017-12-04T12:01:52.783Z,38.80
2017-12-04T12:04:20.864Z,41.25
2017-12-04T12:06:48.984Z,55.20
2017-12-04T12:09:16.961Z,54.72
2017-12-04T12:11:44.916Z,50.83
2017-12-04T12:14:12.946Z,55.95
2017-12-04T12:16:40.898Z,49.05
2017-12-04T12:19:08.947Z,63.10
2017-12-04T12:21:36.903Z,59.20
2017-12-04T12:24:04.832Z,62.28
2017-12-04T12:26:32.734Z,66.03
2017-12-04T12:29:00.691Z,51.22
2017-12-04T12:31:29.368Z,58.28
2017-12-04T12:33:57.348Z,44.72
2017-12-04T12:36:27.450Z,54.80
2017-12-04T12:38:55.418Z,50.83
2017-12-04T12:41:23.333Z,50.47
2017-12-04T12:43:51.345Z,42.30
2017-12-04T12:46:19.284Z,41.08
2017-12-04T12:48:47.238Z,48.92
2017-12-04T12:51:15.228Z,52.62
2017-12-04T12:53:43.159Z,45.05
2017-12-04T12:56:11.136Z,47.45
2017-12-04T12:58:39.844Z,38.35
2017-12-04T13:01:07.814Z,30.65
2017-12-04T13:03:35.749Z,28.58
2017-12-04T13:06:08.315Z,40.12
2017-12-04T13:08:36.281Z,30.80
2017-12-04T13:11:04.269Z,32.78
2017-12-04T13:13:32.954Z,34.65
2017-12-04T13:16:00.917Z,35.88
2017-12-04T13:18:28.826Z,33.88
2017-12-04T13:20:56.801Z,31.00
2017-12-04T13:23:24.726Z,45.05
2017-12-04T13:25:52.675Z,42.35
2017-12-04T13:28:20.596Z,47.55
2017-12-04T13:30:49.021Z,45.78
2017-12-04T13:33:28.474Z,37.92
2017-12-04T13:36:08.034Z,36.13
2017-12-04T13:38:36.153Z,43.63
2017-12-04T13:41:04.216Z,31.02
2017-12-04T13:43:32.561Z,33.72
2017-12-04T13:46:04.260Z,32.45
2017-12-04T13:48:32.240Z,30.40
2017-12-04T13:51:01.935Z,39.00
2017-12-04T13:53:29.823Z,33.25
2017-12-04T13:55:58.095Z,26.73
2017-12-04T13:58:25.992Z,25.50
2017-12-04T14:00:53.972Z,23.00
2017-12-04T14:03:21.974Z,24.98
2017-12-04T14:05:49.962Z,24.40
2017-12-04T14:08:17.964Z,29.08
2017-12-04T14:10:45.935Z,34.75
2017-12-04T14:13:13.918Z,27.65
2017-12-04T14:15:41.880Z,40.28
2017-12-04T14:18:09.934Z,34.03
2017-12-04T14:20:37.903Z,41.47
2017-12-04T14:23:05.854Z,36.38
2017-12-04T14:25:33.762Z,34.80
2017-12-04T14:28:01.737Z,37.65
2017-12-04T14:30:29.673Z,49.50
2017-12-04T14:32:57.662Z,34.22
2017-12-04T14:35:26.504Z,44.63
2017-12-04T14:37:55.249Z,50.92
2017-12-04T14:40:23.209Z,37.22
2017-12-04T14:42:51.163Z,45.63
2017-12-04T14:45:19.111Z,44.15
2017-12-04T14:47:47.161Z,49.60
2017-12-04T14:50:15.869Z,51.03
2017-12-04T14:52:43.896Z,48.72
2017-12-04T14:55:11.869Z,49.28
2017-12-04T14:57:39.957Z,53.50
2017-12-04T15:00:07.974Z,49.30
2017-12-04T15:02:35.962Z,55.40
2017-12-04T15:05:03.980Z,45.58
2017-12-04T15:07:34.908Z,50.47
2017-12-04T15:10:02.939Z,42.08
2017-12-04T15:12:30.968Z,52.47
2017-12-04T15:14:59.804Z,40.28
2017-12-04T15:17:27.850Z,43.28
2017-12-04T15:19:55.883Z,40.78
2017-12-04T15:22:24.084Z,42.58
2017-12-04T15:24:52.082Z,51.30
2017-12-04T15:27:20.125Z,47.22
2017-12-04T15:29:54.754Z,45.67
2017-12-04T15:32:22.734Z,32.83
2017-12-04T15:34:50.766Z,49.35
2017-12-04T15:37:18.755Z,50.20
2017-12-04T15:39:47.561Z,45.15
2017-12-04T15:42:15.532Z,43.38
2017-12-04T15:44:44.310Z,41.75
2017-12-04T15:47:13.033Z,40.30
2017-12-04T15:49:41.080Z,34.30
2017-12-04T15:52:09.058Z,34.53
2017-12-04T15:54:37.106Z,43.03
2017-12-04T15:57:05.852Z,49.97
2017-12-04T15:59:33.885Z,45.42
2017-12-04T16:02:01.862Z,37.13
2017-12-04T16:04:29.868Z,51.35
2017-12-04T16:06:57.879Z,48.80
2017-12-04T16:09:26.648Z,52.50
2017-12-04T16:11:54.620Z,39.90
2017-12-04T16:14:22.722Z,47.92
2017-12-04T16:16:50.694Z,37.97
2017-12-04T16:19:19.489Z,50.75
2017-12-04T16:21:48.114Z,50.40
2017-12-04T16:24:16.090Z,45.12
2017-12-04T16:26:45.167Z,52.90
2017-12-04T16:29:13.144Z,52.25
2017-12-04T16:31:41.108Z,53.70
2017-12-04T16:34:09.191Z,50.58
2017-12-04T16:36:37.144Z,42.55
2017-12-04T16:39:05.219Z,45.28
2017-12-04T16:41:33.201Z,57.45
2017-12-04T16:44:01.267Z,40.97
2017-12-04T16:46:30.363Z,49.05
2017-12-04T16:48:58.336Z,54.15
2017-12-04T16:51:26.262Z,48.53
2017-12-04T16:53:54.258Z,40.67
2017-12-04T16:56:22.328Z,34.47
2017-12-04T16:58:50.309Z,51.80
2017-12-04T17:01:18.335Z,45.42
2017-12-04T17:03:46.356Z,38.33
2017-12-04T17:06:15.367Z,52.60
2017-12-04T17:08:44.610Z,41.70
2017-12-04T17:11:12.612Z,51.78
2017-12-04T17:13:40.609Z,51.92
2017-12-04T17:16:14.319Z,48.83
2017-12-04T17:18:42.322Z,45.67
2017-12-04T17:21:10.342Z,48.38
2017-12-04T17:23:38.391Z,50.90
2017-12-04T17:26:06.365Z,51.75
2017-12-04T17:28:34.422Z,43.83
2017-12-04T17:31:04.629Z,36.70
2017-12-04T17:33:32.575Z,49.40
2017-12-04T17:36:00.544Z,40.22
2017-12-04T17:38:28.463Z,44.80
2017-12-04T17:40:56.428Z,42.58
2017-12-04T17:43:24.416Z,47.30
2017-12-04T17:45:53.377Z,45.80
2017-12-04T17:48:22.113Z,37.63
2017-12-04T17:50:50.133Z,40.40
2017-12-04T17:53:18.030Z,55.70
2017-12-04T17:55:46.016Z,44.28
2017-12-04T17:58:14.108Z,53.85
2017-12-04T18:00:42.197Z,53.08
2017-12-04T18:03:10.150Z,45.35
2017-12-04T18:05:38.209Z,56.60
2017-12-04T18:08:06.172Z,48.53
2017-12-04T18:10:34.217Z,45.58
2017-12-04T18:13:02.942Z,46.15
2017-12-04T18:15:30.984Z,48.83
2017-12-04T18:17:58.956Z,42.90
2017-12-04T18:20:26.980Z,53.03
2017-12-04T18:22:54.988Z,57.15
2017-12-04T18:25:23.767Z,45.33
2017-12-04T18:27:51.759Z,48.42
2017-12-04T18:30:19.764Z,50.20
2017-12-04T18:32:48.206Z,43.80
2017-12-04T18:35:17.027Z,53.45
2017-12-04T18:37:45.125Z,56.80
2017-12-04T18:40:13.198Z,52.17
2017-12-04T18:42:41.218Z,51.72
2017-12-04T18:45:09.266Z,60.55
2017-12-04T18:47:37.277Z,64.45
2017-12-04T18:50:05.388Z,58.67
2017-12-04T18:52:34.815Z,70.90
2017-12-04T18:55:02.986Z,63.50
2017-12-04T18:57:31.010Z,64.15
2017-12-04T18:59:59.074Z,67.57
2017-12-04T19:02:27.923Z,58.95
2017-12-04T19:04:55.960Z,78.57
2017-12-04T19:07:24.134Z,68.95
2017-12-04T19:09:52.214Z,67.55
2017-12-04T19:12:20.221Z,59.20
2017-12-04T19:14:48.247Z,61.37
2017-12-04T19:17:16.365Z,61.78
2017-12-04T19:19:44.399Z,63.55
2017-12-04T19:22:12.409Z,53.42
2017-12-04T19:24:41.169Z,63.75
2017-12-04T19:27:09.223Z,64.45
2017-12-04T19:29:39.483Z,70.45
2017-12-04T19:32:08.820Z,61.58
2017-12-04T19:34:36.858Z,61.28
2017-12-04T19:37:05.011Z,59.25
2017-12-04T19:39:33.151Z,50.75
2017-12-04T19:42:01.256Z,61.65
2017-12-04T19:44:29.321Z,60.25
2017-12-04T19:46:57.486Z,56.78
2017-12-04T19:49:25.626Z,63.20
2017-12-04T19:51:54.446Z,59.70
2017-12-04T19:54:22.460Z,63.87
2017-12-04T19:56:50.494Z,64.87
2017-12-04T19:59:25.712Z,59.95
2017-12-04T20:01:54.238Z,61.37
2017-12-04T20:04:22.266Z,60.78
2017-12-04T20:06:50.335Z,57.58
2017-12-04T20:09:18.330Z,57.67
2017-12-04T20:11:46.386Z,61.83
2017-12-04T20:14:14.470Z,68.25
2017-12-04T20:16:42.621Z,59.30
2017-12-04T20:19:10.678Z,54.30
2017-12-04T20:21:39.583Z,59.80
2017-12-04T20:24:07.658Z,62.58
2017-12-04T20:26:40.330Z,65.37
2017-12-04T20:29:08.433Z,58.15
2017-12-04T20:31:36.419Z,71.82
2017-12-04T20:34:04.505Z,74.40
2017-12-04T20:36:32.486Z,69.05
2017-12-04T20:39:00.542Z,64.90
2017-12-04T20:41:28.574Z,70.32
2017-12-04T20:43:56.628Z,74.70
2017-12-04T20:46:25.424Z,79.05
2017-12-04T20:48:53.550Z,65.47
2017-12-04T20:51:21.561Z,61.08
2017-12-04T20:53:49.614Z,65.47
2017-12-04T20:56:17.659Z,63.30
2017-12-04T20:58:46.180Z,70.60
2017-12-04T21:01:19.710Z,66.80
2017-12-04T21:03:49.023Z,61.47
2017-12-04T21:06:17.099Z,58.10
2017-12-04T21:11:52.080Z,58.83
2017-12-04T21:14:31.904Z,56.88
2017-12-04T21:17:11.616Z,61.83
2017-12-04T21:19:39.773Z,57.42
2017-12-04T21:22:07.862Z,69.37
2017-12-04T21:24:40.122Z,59.10
2017-12-04T21:27:08.968Z,66.65
2017-12-04T21:29:37.067Z,75.50
2017-12-04T21:32:05.182Z,58.30
2017-12-04T21:34:33.294Z,71.35
2017-12-04T21:37:01.346Z,61.78
2017-12-04T21:39:29.520Z,60.80
2017-12-04T21:41:57.559Z,58.30
2017-12-04T21:44:26.406Z,60.38
2017-12-04T21:46:54.533Z,54.38
2017-12-04T21:49:22.699Z,74.40
2017-12-04T21:51:51.515Z,68.35
2017-12-04T21:54:19.599Z,61.40
2017-12-04T21:56:47.656Z,60.67
2017-12-04T21:59:15.679Z,61.22
2017-12-04T22:01:43.796Z,61.97
2017-12-04T22:04:12.791Z,65.30
2017-12-04T22:06:40.941Z,73.75
2017-12-04T22:09:09.052Z,61.20
2017-12-04T22:11:37.182Z,60.35
2017-12-04T22:14:06.015Z,65.60
2017-12-04T22:16:34.260Z,61.60
2017-12-04T22:19:03.232Z,71.25
2017-12-04T22:21:31.411Z,71.65
2017-12-04T22:24:06.671Z,75.97
2017-12-04T22:26:42.328Z,69.57
2017-12-04T22:29:12.114Z,78.47
2017-12-04T22:31:40.178Z,72.97
2017-12-04T22:34:08.393Z,72.03
2017-12-04T22:36:36.606Z,74.60
2017-12-04T22:39:04.664Z,67.15
2017-12-04T22:41:33.057Z,66.53
2017-12-04T22:44:01.128Z,74.25
2017-12-04T22:46:29.226Z,72.50
2017-12-04T22:48:57.322Z,65.43
2017-12-04T22:51:26.218Z,64.22
2017-12-04T22:53:54.389Z,79.87
2017-12-04T22:56:23.237Z,67.75
2017-12-04T22:58:51.318Z,67.70
2017-12-04T23:01:19.420Z,65.40
2017-12-04T23:03:50.040Z,65.90
2017-12-04T23:06:18.248Z,74.68
2017-12-04T23:08:46.302Z,78.87
2017-12-04T23:11:14.450Z,73.47
2017-12-04T23:13:42.516Z,69.85
2017-12-04T23:16:10.609Z,78.32
2017-12-04T23:18:38.659Z,76.85
2017-12-04T23:21:06.831Z,90.45
2017-12-04T23:23:34.849Z,96.55
2017-12-04T23:26:03.849Z,75.70
2017-12-04T23:28:31.924Z,83.35
2017-12-04T23:30:59.984Z,76.87
2017-12-04T23:33:28.021Z,78.35
2017-12-04T23:35:56.130Z,81.97
2017-12-04T23:38:24.219Z,79.47
2017-12-04T23:40:53.127Z,77.45
2017-12-04T23:43:21.084Z,86.32
2017-12-04T23:45:49.197Z,74.43
2017-12-04T23:48:17.168Z,70.62
2017-12-04T23:50:45.174Z,68.45
2017-12-04T23:53:13.156Z,64.32
2017-12-04T23:55:41.948Z,76.30
2017-12-04T23:58:10.121Z,79.47
